Terminal Aerodrome Forecast
Issued by NWS

Home | Current Version | Previous Version | Text Only | Print | Product List | Glossary On
Versions: 1 2 3 4 5 6 7 8 9 10 11 12
000
FTUS45 KRIW 031122
TAFWRL
TAF
KWRL 031122Z 0312/0412 VRB05KT P6SM FEW120 BKN200
     FM032200 06008KT P6SM VCTS SCT090CB BKN200
     FM040300 18009KT P6SM -SHRA VCTS SCT050 OVC080CB
     FM040900 21008KT 6SM -SHRA OVC050=

USA.gov is the U.S. government's official web portal to all federal, state and local government web resources and services.